Eben, New York
Current Conditions -  °F | °C
As of 4:53 AM on Tuesday 21 Oct 2014 (Local Time) from KMSS Reporting Station
Light Rain Light Rain  
Wind Chill: 40°   Ceiling: 3300
Heat Index: 44°   Visibility: 6mi
Dew Point: 42°   Wind: 8mph
Humidity: 93%   Direction: 70°ENE
Pressure: 29.91"   Gusts: NA
Location:  44.6469°N, 74.9157°W
Report Text: KMSS 210853Z AUTO 07007KT 6SM -RA BR OVC033 07/06 A2991 RMK AO2 SLP132 P0001 60002 T00670056 53004
Loading
Personal Weather Stations






























Interactive Weather Map
Tropical Storm Tracking
New forecast layout! Learn more

10-Day Weather Forecast

Advertisements
Track Severe Weather on mobile